createdAt,value
2018-10-11T00:00:53.200Z,88.70
2018-10-11T00:03:22.699Z,88.90
2018-10-11T00:05:52.381Z,89.40
2018-10-11T00:08:21.572Z,89.60
2018-10-11T00:10:50.889Z,89.70
2018-10-11T00:13:20.115Z,89.70
2018-10-11T00:15:49.868Z,89.90
2018-10-11T00:18:19.117Z,90.00
2018-10-11T00:20:48.439Z,90.10
2018-10-11T00:23:17.656Z,90.30
2018-10-11T00:25:47.039Z,90.40
2018-10-11T00:28:16.225Z,90.50
2018-10-11T00:30:45.495Z,90.50
2018-10-11T00:33:14.671Z,90.60
2018-10-11T00:35:43.903Z,90.70
2018-10-11T00:38:13.092Z,90.80
2018-10-11T00:40:42.308Z,90.80
2018-10-11T00:43:12.405Z,90.80
2018-10-11T00:45:43.561Z,90.90
2018-10-11T00:48:12.725Z,91.00
2018-10-11T00:50:41.937Z,91.00
2018-10-11T00:53:11.459Z,91.00
2018-10-11T00:55:41.250Z,91.00
2018-10-11T00:58:10.875Z,91.30
2018-10-11T01:00:40.519Z,91.30
2018-10-11T01:03:10.035Z,91.40
2018-10-11T01:05:39.195Z,91.50
2018-10-11T01:08:08.445Z,91.60
2018-10-11T01:10:37.715Z,91.70
2018-10-11T01:13:07.179Z,91.60
2018-10-11T01:15:37.257Z,91.80
2018-10-11T01:18:06.579Z,91.90
2018-10-11T01:20:36.187Z,91.90
2018-10-11T01:23:05.454Z,91.90
2018-10-11T01:25:34.765Z,91.80
2018-10-11T01:28:04.214Z,91.70
2018-10-11T01:30:33.850Z,91.70
2018-10-11T01:33:03.516Z,91.80
2018-10-11T01:35:33.561Z,91.90
2018-10-11T01:38:02.796Z,92.00
2018-10-11T01:40:32.165Z,91.80
2018-10-11T01:43:04.400Z,91.70
2018-10-11T01:45:34.422Z,91.60
2018-10-11T01:48:03.878Z,91.60
2018-10-11T01:50:33.108Z,91.70
2018-10-11T01:53:05.146Z,92.00
2018-10-11T01:55:34.436Z,92.20
2018-10-11T01:58:03.619Z,92.20
2018-10-11T02:05:10.271Z,92.30
2018-10-11T02:07:39.856Z,92.20
2018-10-11T02:10:09.177Z,92.30
2018-10-11T02:12:38.755Z,92.20
2018-10-11T02:15:09.395Z,92.30
2018-10-11T02:17:39.367Z,92.30
2018-10-11T02:20:12.947Z,92.20
2018-10-11T02:22:42.445Z,92.20
2018-10-11T02:25:12.540Z,92.10
2018-10-11T02:27:42.966Z,92.00
2018-10-11T02:30:13.157Z,92.00
2018-10-11T02:32:43.407Z,91.90
2018-10-11T02:35:13.320Z,91.80
2018-10-11T02:37:44.211Z,91.70
2018-10-11T02:40:15.285Z,91.70
2018-10-11T02:42:45.549Z,91.70
2018-10-11T02:45:14.886Z,91.80
2018-10-11T02:47:44.555Z,91.80
2018-10-11T02:50:15.437Z,91.80
2018-10-11T02:52:47.811Z,91.80
2018-10-11T02:55:26.921Z,91.90
2018-10-11T02:58:07.394Z,91.80
2018-10-11T03:00:36.713Z,91.80
2018-10-11T03:03:12.578Z,91.80
2018-10-11T03:05:44.073Z,92.00
2018-10-11T03:08:21.824Z,92.10
2018-10-11T03:10:51.906Z,92.30
2018-10-11T03:13:21.099Z,92.50
2018-10-11T03:15:50.354Z,92.70
2018-10-11T03:18:19.574Z,92.80
2018-10-11T03:20:48.766Z,92.80
2018-10-11T03:23:17.977Z,93.10
2018-10-11T03:25:47.202Z,93.50
2018-10-11T03:28:17.484Z,93.40
2018-10-11T03:30:46.631Z,93.60
2018-10-11T03:33:15.904Z,93.70
2018-10-11T03:35:45.446Z,93.90
2018-10-11T03:38:14.733Z,94.10
2018-10-11T03:40:44.072Z,93.80
2018-10-11T03:43:13.402Z,93.80
2018-10-11T03:45:42.551Z,93.80
2018-10-11T03:48:11.753Z,93.90
2018-10-11T03:50:41.058Z,94.00
2018-10-11T03:53:10.220Z,94.00
2018-10-11T03:55:39.476Z,94.00
2018-10-11T03:58:08.724Z,94.00
2018-10-11T04:00:38.136Z,94.00
2018-10-11T04:03:07.502Z,94.00
2018-10-11T04:05:37.330Z,93.90
2018-10-11T04:08:06.998Z,93.90
2018-10-11T04:10:36.184Z,93.90
2018-10-11T04:13:05.453Z,93.70
2018-10-11T04:15:34.841Z,93.80
2018-10-11T04:18:04.163Z,93.70
2018-10-11T04:20:33.417Z,93.70
2018-10-11T04:23:02.738Z,93.80
2018-10-11T04:25:31.965Z,93.70
2018-10-11T04:28:01.134Z,93.70
2018-10-11T04:30:30.317Z,93.70
2018-10-11T04:32:59.857Z,93.70
2018-10-11T04:35:29.052Z,93.60
2018-10-11T04:37:58.283Z,93.60
2018-10-11T04:40:27.469Z,93.60
2018-10-11T04:42:56.810Z,93.70
2018-10-11T04:45:26.263Z,93.70
2018-10-11T04:47:56.003Z,93.70
2018-10-11T04:50:25.696Z,93.80
2018-10-11T04:52:55.097Z,93.80
2018-10-11T04:55:25.041Z,93.80
2018-10-11T04:57:54.667Z,93.90
2018-10-11T05:00:24.189Z,93.80
2018-10-11T05:02:53.929Z,93.80
2018-10-11T05:05:23.173Z,93.70
2018-10-11T05:07:52.505Z,93.80
2018-10-11T05:10:22.033Z,93.80
2018-10-11T05:12:51.366Z,93.70
2018-10-11T05:15:20.671Z,93.70
2018-10-11T05:17:51.524Z,93.60
2018-10-11T05:20:20.851Z,93.70
2018-10-11T05:22:50.778Z,93.60
2018-10-11T05:25:20.027Z,93.70
2018-10-11T05:27:49.388Z,93.70
2018-10-11T05:30:18.613Z,93.70
2018-10-11T05:32:48.215Z,93.70
2018-10-11T05:35:19.414Z,93.80
2018-10-11T05:37:50.535Z,93.80
2018-10-11T05:40:20.316Z,93.80
2018-10-11T05:42:56.476Z,93.70
2018-10-11T05:45:28.715Z,93.70
2018-10-11T05:47:58.462Z,93.70
2018-10-11T05:50:28.743Z,93.80
2018-10-11T05:53:01.871Z,93.70
2018-10-11T05:55:31.928Z,93.70
2018-10-11T05:58:01.247Z,93.60
2018-10-11T06:00:30.776Z,93.60
2018-10-11T06:03:02.791Z,93.60
2018-10-11T06:05:32.397Z,93.70
2018-10-11T06:08:03.361Z,93.60
2018-10-11T06:10:35.835Z,93.60
2018-10-11T06:13:06.261Z,93.50
2018-10-11T06:15:35.590Z,93.30
2018-10-11T06:18:04.945Z,93.20
2018-10-11T06:20:34.941Z,93.20
2018-10-11T06:23:04.197Z,93.50
2018-10-11T06:25:35.243Z,93.00
2018-10-11T06:28:04.674Z,93.00
2018-10-11T06:30:35.160Z,93.00
2018-10-11T06:33:04.504Z,93.00
2018-10-11T06:35:34.953Z,93.00
2018-10-11T06:38:05.093Z,93.00
2018-10-11T06:40:40.346Z,93.00
2018-10-11T06:43:11.804Z,93.00
2018-10-11T06:45:41.099Z,92.90
2018-10-11T06:48:10.877Z,92.90
2018-10-11T06:50:42.073Z,92.80
2018-10-11T06:53:11.815Z,92.70
2018-10-11T06:55:41.317Z,92.70
2018-10-11T06:58:11.591Z,92.60
2018-10-11T07:00:41.015Z,92.40
2018-10-11T07:03:10.353Z,92.40
2018-10-11T07:05:39.574Z,92.20
2018-10-11T07:08:09.842Z,92.10
2018-10-11T07:10:39.633Z,91.80
2018-10-11T07:13:10.024Z,91.60
2018-10-11T07:15:39.253Z,91.30
2018-10-11T07:18:08.707Z,91.20
2018-10-11T07:20:38.081Z,91.10
2018-10-11T07:23:12.072Z,90.90
2018-10-11T07:25:41.814Z,90.70
2018-10-11T07:28:11.824Z,90.60
2018-10-11T07:30:41.627Z,90.10
2018-10-11T07:33:11.324Z,90.00
2018-10-11T07:35:41.951Z,89.30
2018-10-11T07:38:13.118Z,89.00
2018-10-11T07:40:42.498Z,87.50
2018-10-11T07:43:11.860Z,86.40
2018-10-11T07:45:41.512Z,85.70
2018-10-11T07:48:10.554Z,85.50
2018-10-11T07:50:39.778Z,84.00
2018-10-11T07:53:09.036Z,84.00
2018-10-11T07:55:38.614Z,83.70
2018-10-11T07:58:07.846Z,83.60
2018-10-11T08:00:37.627Z,83.10
2018-10-11T08:03:08.808Z,82.90
2018-10-11T08:05:41.474Z,82.20
2018-10-11T08:08:11.230Z,82.30
2018-10-11T08:10:41.878Z,82.20
2018-10-11T08:13:10.803Z,82.10
2018-10-11T08:15:40.548Z,81.70
2018-10-11T08:18:09.796Z,82.00
2018-10-11T08:20:39.105Z,81.50
2018-10-11T08:23:08.310Z,81.50
2018-10-11T08:25:38.114Z,79.80
2018-10-11T08:28:07.450Z,79.90
2018-10-11T08:30:36.847Z,77.00
2018-10-11T08:33:06.200Z,71.10
2018-10-11T08:35:35.445Z,65.10
2018-10-11T08:38:05.104Z,59.10
2018-10-11T08:40:34.242Z,55.40
2018-10-11T08:43:28.692Z,51.80
2018-10-11T08:46:34.966Z,49.50
2018-10-11T08:49:04.246Z,46.10
2018-10-11T08:51:33.487Z,43.30
2018-10-11T08:57:49.332Z,40.70
2018-10-11T09:00:18.612Z,38.60
2018-10-11T09:02:47.850Z,38.50
2018-10-11T09:05:17.156Z,37.80
2018-10-11T09:07:46.431Z,37.50
2018-10-11T09:14:00.777Z,37.80
2018-10-11T09:16:30.413Z,37.50
2018-10-11T09:34:23.959Z,41.40
2018-10-11T09:36:53.215Z,42.60
2018-10-11T09:51:25.503Z,40.70
2018-10-11T09:53:54.739Z,40.90
2018-10-11T10:00:19.081Z,40.90
2018-10-11T10:02:49.490Z,40.50
2018-10-11T10:05:18.966Z,39.80
2018-10-11T10:07:48.214Z,39.30
2018-10-11T10:10:39.418Z,38.40
2018-10-11T10:20:34.333Z,35.30
2018-10-11T12:20:55.754Z,35.00
2018-10-11T12:23:32.231Z,33.80
2018-10-11T12:26:05.227Z,33.30
2018-10-11T12:28:55.465Z,33.10
2018-10-11T12:35:14.516Z,30.70
2018-10-11T12:44:42.009Z,31.30
2018-10-11T12:47:11.363Z,32.30
2018-10-11T12:49:44.222Z,34.10
2018-10-11T12:52:10.348Z,33.90
2018-10-11T12:54:40.604Z,34.00
2018-10-11T12:57:13.572Z,34.10
2018-10-11T12:59:40.835Z,34.50
2018-10-11T13:02:10.776Z,34.60
2018-10-11T13:05:24.067Z,35.20
2018-10-11T13:07:53.719Z,35.80
2018-10-11T13:13:54.074Z,35.80
2018-10-11T13:16:23.798Z,36.10
2018-10-11T13:18:57.276Z,37.00
2018-10-11T13:28:52.019Z,37.00
2018-10-11T13:35:14.363Z,37.30
2018-10-11T13:38:23.526Z,36.90
2018-10-11T13:40:55.812Z,37.50
2018-10-11T13:43:30.050Z,37.70
2018-10-11T13:46:01.978Z,37.90
2018-10-11T13:52:16.250Z,37.50
2018-10-11T14:02:25.542Z,38.40
2018-10-11T14:05:22.917Z,38.20
2018-10-11T14:07:52.179Z,38.50
2018-10-11T14:17:46.041Z,39.40
2018-10-11T14:20:30.747Z,39.50
2018-10-11T14:23:27.833Z,39.90
2018-10-11T14:26:05.001Z,40.00
2018-10-11T14:28:34.212Z,40.20
2018-10-11T14:31:24.655Z,40.50
2018-10-11T14:34:20.045Z,40.70
2018-10-11T14:36:58.104Z,41.30
2018-10-11T14:39:43.530Z,41.60
2018-10-11T14:42:12.861Z,41.70
2018-10-11T14:44:49.152Z,41.80
2018-10-11T14:47:26.544Z,42.00
2018-10-11T14:53:27.375Z,42.30
2018-10-11T14:55:56.660Z,42.70
2018-10-11T14:58:33.584Z,43.00
2018-10-11T15:01:28.963Z,44.00
2018-10-11T15:04:00.317Z,43.40
2018-10-11T15:06:32.351Z,43.80
2018-10-11T15:09:01.542Z,44.10
2018-10-11T15:11:30.939Z,44.40
2018-10-11T15:14:00.193Z,44.70
2018-10-11T15:16:29.402Z,44.80
2018-10-11T15:18:58.550Z,45.00
2018-10-11T15:21:27.942Z,45.30
2018-10-11T15:23:57.162Z,45.60
2018-10-11T15:26:27.328Z,45.70
2018-10-11T15:29:59.596Z,46.10
2018-10-11T15:32:28.802Z,46.30
2018-10-11T15:34:58.384Z,46.70
2018-10-11T15:37:27.574Z,47.00
2018-10-11T15:39:56.798Z,47.40
2018-10-11T15:42:26.005Z,47.70
2018-10-11T15:44:55.220Z,47.90
2018-10-11T15:47:24.422Z,48.10
2018-10-11T15:49:53.912Z,48.40
2018-10-11T15:52:23.141Z,48.60
2018-10-11T15:54:52.388Z,49.50
2018-10-11T15:57:21.622Z,49.20
2018-10-11T15:59:50.815Z,49.50
2018-10-11T16:02:22.176Z,49.90
2018-10-11T16:04:51.562Z,50.00
2018-10-11T16:07:20.764Z,50.20
2018-10-11T16:09:50.007Z,50.40
2018-10-11T16:12:19.308Z,50.60
2018-10-11T16:14:48.539Z,50.90
2018-10-11T16:17:18.151Z,51.10
2018-10-11T16:19:47.731Z,51.20
2018-10-11T16:22:17.238Z,51.40
2018-10-11T16:24:46.523Z,51.60
2018-10-11T16:27:16.005Z,51.80
2018-10-11T16:29:45.300Z,52.10
2018-10-11T16:32:14.660Z,52.40
2018-10-11T16:34:43.817Z,52.60
2018-10-11T16:37:13.066Z,52.80
2018-10-11T16:39:42.285Z,53.10
2018-10-11T16:42:11.569Z,53.30
2018-10-11T16:44:40.873Z,53.50
2018-10-11T16:47:10.130Z,53.70
2018-10-11T16:49:39.429Z,54.00
2018-10-11T16:52:08.866Z,54.20
2018-10-11T16:54:42.328Z,54.50
2018-10-11T16:57:14.047Z,54.60
2018-10-11T16:59:43.397Z,54.90
2018-10-11T17:02:12.628Z,55.20
2018-10-11T17:04:43.015Z,55.50
2018-10-11T17:07:12.278Z,55.50
2018-10-11T17:09:41.564Z,55.60
2018-10-11T17:12:10.844Z,55.60
2018-10-11T17:14:40.056Z,55.60
2018-10-11T17:17:09.283Z,55.80
2018-10-11T17:19:38.505Z,55.90
2018-10-11T17:22:07.894Z,56.00
2018-10-11T17:24:37.081Z,56.10
2018-10-11T17:27:06.281Z,55.90
2018-10-11T17:29:35.669Z,55.90
2018-10-11T17:32:05.980Z,55.90
2018-10-11T17:34:35.171Z,55.90
2018-10-11T17:37:04.484Z,56.00
2018-10-11T17:39:33.686Z,56.00
2018-10-11T17:42:02.972Z,56.00
2018-10-11T17:44:32.131Z,56.00
2018-10-11T17:47:01.400Z,56.10
2018-10-11T17:49:30.606Z,56.10
2018-10-11T17:51:59.889Z,56.10
2018-10-11T17:54:30.330Z,56.10
2018-10-11T17:56:59.595Z,56.20
2018-10-11T17:59:28.825Z,56.30
2018-10-11T18:01:58.359Z,56.40
2018-10-11T18:04:27.682Z,56.50
2018-10-11T18:06:57.172Z,56.40
2018-10-11T18:09:26.418Z,56.50
2018-10-11T18:11:55.908Z,56.40
2018-10-11T18:14:37.622Z,56.40
2018-10-11T18:17:11.458Z,56.50
2018-10-11T18:19:40.742Z,56.60
2018-10-11T18:22:09.975Z,56.60
2018-10-11T18:24:39.188Z,56.70
2018-10-11T18:27:08.503Z,56.80
2018-10-11T18:29:38.435Z,56.90
2018-10-11T18:32:07.811Z,57.00
2018-10-11T18:34:37.199Z,57.10
2018-10-11T18:37:06.561Z,57.20
2018-10-11T18:39:35.949Z,57.10
2018-10-11T18:42:05.526Z,57.20
2018-10-11T18:46:04.206Z,57.40
2018-10-11T18:48:33.394Z,57.40
2018-10-11T18:51:02.634Z,57.60
2018-10-11T18:53:31.792Z,57.60
2018-10-11T18:56:01.029Z,57.70
2018-10-11T18:58:30.249Z,57.80
2018-10-11T19:00:59.514Z,58.00
2018-10-11T19:03:28.778Z,58.20
2018-10-11T19:05:58.418Z,58.10
2018-10-11T19:08:29.303Z,58.10
2018-10-11T19:10:58.780Z,58.30
2018-10-11T19:13:29.198Z,58.40
2018-10-11T19:15:58.535Z,58.50
2018-10-11T19:18:28.139Z,58.50
2018-10-11T19:20:57.442Z,58.60
2018-10-11T19:23:26.742Z,58.70
2018-10-11T19:25:56.093Z,58.50
2018-10-11T19:28:25.354Z,58.60
2018-10-11T19:30:54.885Z,58.70
2018-10-11T19:33:24.120Z,58.90
2018-10-11T19:35:53.372Z,58.90
2018-10-11T19:38:22.924Z,59.10
2018-10-11T19:40:52.158Z,59.10
2018-10-11T19:43:22.225Z,59.30
2018-10-11T19:45:51.780Z,59.40
2018-10-11T19:48:21.957Z,59.60
2018-10-11T19:50:51.812Z,59.70
2018-10-11T19:53:22.880Z,59.80
2018-10-11T19:55:55.197Z,59.80
2018-10-11T19:58:24.645Z,60.00
2018-10-11T20:00:53.895Z,60.20
2018-10-11T20:03:23.767Z,60.10
2018-10-11T20:05:53.376Z,60.20
2018-10-11T20:08:23.590Z,60.30
2018-10-11T20:10:53.005Z,60.60
2018-10-11T20:13:22.483Z,60.60
2018-10-11T20:15:51.736Z,60.80
2018-10-11T20:18:33.121Z,60.90
2018-10-11T20:21:02.660Z,61.00
2018-10-11T20:23:32.085Z,61.10
2018-10-11T20:26:01.414Z,61.10
2018-10-11T20:28:30.753Z,61.20
2018-10-11T20:31:00.127Z,61.40
2018-10-11T20:33:29.402Z,61.50
2018-10-11T20:35:59.543Z,61.70
2018-10-11T20:38:28.902Z,61.70
2018-10-11T20:40:58.053Z,61.50
2018-10-11T20:43:27.406Z,61.50
2018-10-11T20:45:56.651Z,61.50
2018-10-11T20:48:26.052Z,61.50
2018-10-11T20:50:55.283Z,61.60
2018-10-11T20:53:24.531Z,61.50
2018-10-11T20:55:53.781Z,61.40
2018-10-11T20:58:23.023Z,61.50
2018-10-11T21:00:52.277Z,61.40
2018-10-11T21:03:21.548Z,61.40
2018-10-11T21:05:50.881Z,61.50
2018-10-11T21:08:20.042Z,61.40
2018-10-11T21:10:49.330Z,61.40
2018-10-11T21:13:19.115Z,61.30
2018-10-11T21:15:48.330Z,61.40
2018-10-11T21:18:17.864Z,61.20
2018-10-11T21:20:47.063Z,61.20
2018-10-11T21:23:16.258Z,61.20
2018-10-11T21:25:45.442Z,61.30
2018-10-11T21:28:14.799Z,61.30
2018-10-11T21:30:43.947Z,61.30
2018-10-11T21:33:13.139Z,61.30
2018-10-11T21:35:42.572Z,61.40
2018-10-11T21:38:11.960Z,61.40
2018-10-11T21:40:41.176Z,61.40
2018-10-11T21:43:10.416Z,61.40
2018-10-11T21:45:39.619Z,61.40
2018-10-11T21:48:08.899Z,61.40
2018-10-11T21:50:38.150Z,61.50
2018-10-11T21:53:07.343Z,61.40
2018-10-11T21:55:36.537Z,61.50
2018-10-11T21:58:05.675Z,62.40
2018-10-11T22:00:40.185Z,61.70
2018-10-11T22:03:09.406Z,61.70
2018-10-11T22:05:38.699Z,61.80
2018-10-11T22:08:07.970Z,62.00
2018-10-11T22:10:37.171Z,62.10
2018-10-11T22:13:06.343Z,62.00
2018-10-11T22:15:35.736Z,62.20
2018-10-11T22:18:04.964Z,62.10
2018-10-11T22:20:34.212Z,62.20
2018-10-11T22:23:03.466Z,62.10
2018-10-11T22:25:32.736Z,62.10
2018-10-11T22:28:01.996Z,62.20
2018-10-11T22:30:31.158Z,62.20
2018-10-11T22:33:00.818Z,62.10
2018-10-11T22:35:30.009Z,62.00
2018-10-11T22:38:01.455Z,62.00
2018-10-11T22:40:31.171Z,62.10
2018-10-11T22:43:00.420Z,62.10
2018-10-11T22:45:29.697Z,62.00
2018-10-11T22:47:59.004Z,61.70
2018-10-11T22:50:28.392Z,61.70
2018-10-11T22:52:57.636Z,62.10
2018-10-11T22:55:30.631Z,62.50
2018-10-11T22:58:00.646Z,61.90
2018-10-11T23:00:30.060Z,62.00
2018-10-11T23:02:59.484Z,61.90
2018-10-11T23:05:28.692Z,62.00
2018-10-11T23:07:57.892Z,62.10
2018-10-11T23:10:27.143Z,62.10
2018-10-11T23:12:56.458Z,62.20
2018-10-11T23:15:25.615Z,62.20
2018-10-11T23:17:56.818Z,62.30
2018-10-11T23:20:26.998Z,62.50
2018-10-11T23:22:56.306Z,62.80
2018-10-11T23:25:25.533Z,62.70
2018-10-11T23:27:54.780Z,62.80
2018-10-11T23:30:24.408Z,62.80
2018-10-11T23:32:53.614Z,62.80
2018-10-11T23:35:22.854Z,63.00
2018-10-11T23:37:52.058Z,63.00
2018-10-11T23:40:21.182Z,63.10
2018-10-11T23:42:50.337Z,63.00
2018-10-11T23:45:19.566Z,63.20
2018-10-11T23:47:48.833Z,63.20
2018-10-11T23:50:18.230Z,63.30
2018-10-11T23:52:47.732Z,63.20
2018-10-11T23:55:16.981Z,64.20
2018-10-11T23:57:46.194Z,63.40
